Vue régionale

METAR et TAF

Jeudi 25 avril 2019 à 15h55

Visibilités horizontales observées à différents aéroports. Les observations (METAR) et prévisions aéronautiques (TAF) complètes sont disponibles en cliquant sur l’icône correspondante.

  • Luxemburg (ELLX)

    Taf: TAF ELLX 251100Z 2512/2618 16008KT 9999 SCT040 BECMG 2520/2522 23005KT TEMPO 2512/2520 20015G25KT SHRA SCT025TCU BKN035 TEMPO 2600/2608 BKN010 BECMG 2612/2614 23010KT TEMPO 2612/2618 SHRA SCT025TCU=

    Metar: METAR ELLX 251320Z 16010KT 120V210 CAVOK 15/06 Q1007 NOSIG=

  • Spangdahlem (ETAD)

    Taf: TAF ETAD 251200Z 2512/2618 13012KT 9999 SCT040 BKN150 QNH2976INS BECMG 2514/2515 19012KT 9000 -SHRA BKN035 QNH2975INS BECMG 2517/2518 22013KT 9000 -SHRA BKN015 OVC030 QNH2976INS BECMG 2609/2610 26012G18KT 9999 NSW SCT025 QNH2990INS TX18/2515Z TN07/2605Z=

    Metar: nil

  • Metz/Nancy (LFJL)

    Taf: TAF LFJL 251120Z 2512/2612 14011KT 9999 FEW035 BKN075 BECMG 2512/2514 22010KT TEMPO 2514/2520 25016G30KT 4000 RA SCT015 FEW040CB BKN050 TEMPO 2601/2608 5000 -RA BKN012=

    Metar: nil

  • Saarbrücken/Intl (EDDR)

    Taf: TAF EDDR 251100Z 2512/2612 09007KT 9999 SCT030 BECMG 2513/2515 24008KT PROB40 TEMPO 2515/2518 26015G25KT TSRA BKN030CB PROB30 TEMPO 2521/2608 4000 RA BR BKN007=

    Metar: nil

  • Hahn (EDFH)

    Taf: TAF EDFH 251100Z 2512/2612 14012KT 9999 SCT025 BECMG 2512/2515 22010KT PROB40 TEMPO 2515/2519 25015G25KT TSRA BKN020CB PROB30 TEMPO 2521/2609 4000 RA BR BKN007=

    Metar: nil

  • Ramstein (ETAR)

    Taf: TAF AMD ETAR 251340Z 2513/2616 08009KT 9999 BKN070 QNH2975INS BECMG 2513/2514 21009KT 9999 FEW060 BKN070 QNH2966INS TEMPO 2516/2519 26012G25KT 6000 -TSRA BKN030CB BECMG 2602/2603 24008KT 8000 -SHRA OVC012 QNH2984INS TX23/2514Z TN04/2604Z=

    Metar: nil

  • Nancy/Ochey (LFSO)

    Taf: TAF LFSO 250800Z 2509/2609 14010KT CAVOK TEMPO 2513/2516 23020G30KT FEW040TCU TEMPO 2515/2519 26015G25KT 3000 SHRA BKN007 FEW040CB BECMG 2519/2521 21005KT BECMG 2523/2601 BKN008 BECMG 2606/2607 BKN012 BECMG 2607/2609 SCT025=

    Metar: nil

  • Liège Bierset (EBLG)

    Taf: TAF EBLG 251100Z 2512/2618 17013KT 9999 FEW040TCU SCT045 PROB40 TEMPO 2514/2518 16015G28KT PROB30 TEMPO 2513/2522 4500 SHRA PROB40 TEMPO 2602/2606 BKN006=

    Metar: nil

  • Saint-Dizier (LFSI)

    Taf: TAF LFSI 250800Z 2509/2609 16010G20KT 9999 RA BKN060 BKN100 BECMG 2512/2514 18005KT TEMPO 2515/2519 VRB05G20KT SHRA BKN015TCU BKN050 BECMG 2523/2601 CAVOK PROB30 TEMPO 2604/2607 4000 BR FM260800 20005KT 9999 SCT020=

    Metar: nil

  • Maastricht/Zuid Limburg (EHBK)

    Taf: TAF EHBK 251119Z 2512/2618 18012KT CAVOK PROB40 TEMPO 2512/2517 18015G25KT TEMPO 2512/2524 6000 RA SHRA SCT025CB BKN040 BECMG 2515/2518 21008KT BECMG 2606/2609 24012KT=

    Metar: nil

  • Köln/Köln-Bonn (EDDK)

    Taf: TAF EDDK 251100Z 2512/2618 15013KT 9999 FEW035 TEMPO 2512/2514 15015G25KT BECMG 2514/2516 16008KT BECMG 2516/2518 23006KT TEMPO 2518/2524 29006KT PROB40 TEMPO 2518/2522 27015G25KT SHRA BKN020TCU PROB30 TEMPO 2522/2601 4000 -RA BKN012=

    Metar: METAR EDDK 251320Z 15008KT 090V190 CAVOK 20/06 Q1007 NOSIG=

  • Charleroi (EBCI)

    Taf: TAF EBCI 251100Z 2512/2618 17013KT 9999 FEW040TCU SCT045 PROB40 TEMPO 2512/2518 16015G28KT PROB30 TEMPO 2512/2522 4500 SHRA TEMPO 2602/2606 BKN005=

    Metar: nil

  • Wiesbaden (ETOU)

    Taf: TAF ETOU 251103Z 2511/2617 13009KT 9999 BKN080 QNH2974INS BECMG 2514/2515 VRB06KT 9999 FEW080 SCT110 QNH2965INS TEMPO 2517/2519 29010G15KT 8000 -SHRA BECMG 2605/2606 26008KT 8000 -SHRA BKN020 QNH2986INS BECMG 2610/2611 VRB06KT 9999 NSW SCT030 QNH2985INS TX20/2515Z TN06/2604Z=

    Metar: nil

  • Karlsruhe/Baden-Baden (EDSB)

    Taf: TAF EDSB 251100Z 2512/2612 01006KT CAVOK BECMG 2514/2516 23006KT TEMPO 2514/2518 26015G30KT PROB40 TEMPO 2514/2517 27020G40KT 4000 TSRAGR BKN040CB PROB30 TEMPO 2600/2612 RA=

    Metar: nil

  • Chalons/Vatry (LFOK)

    Taf: TAF AMD LFOK 251303Z 2513/2612 16015KT 9999 BKN047 TEMPO 2513/2520 4000 SHRA BKN008 BKN040CB PROB30 TEMPO 2514/2519 2000 TSRA=

    Metar: nil

  • Brüssel (EBBR)

    Taf: TAF EBBR 251100Z 2512/2618 17013KT 9999 FEW040TCU SCT045 PROB40 TEMPO 2512/2518 16015G28KT PROB30 TEMPO 2513/2522 4500 SHRA=

    Metar: METAR EBBR 251320Z 19012KT 9999 -RA FEW010 13/10 Q1005 TEMPO 4000 RA=

  • Düsseldorf (EDDL)

    Taf: TAF EDDL 251100Z 2512/2618 19015G25KT 9999 FEW045 BECMG 2513/2516 20006KT PROB30 TEMPO 2518/2521 24015G25KT SHRA BKN020TCU TEMPO 2519/2522 26006KT TEMPO 2609/2615 24011KT=

    Metar: nil

  • Luxeuil (LFSX)

    Taf: TAF LFSX 251400Z 2515/2615 24015KT CAVOK TEMPO 2515/2518 24015G25KT BECMG 2515/2517 4900 -RA BKN014 TEMPO 2517/2523 3000 RA BECMG 2600/2603 VRB05KT 9000 NSW BECMG 2608/2610 18010KT SCT030TCU TEMPO 2610/2615 VRB15G30KT 4000 SHRA SCT030CB=

    Metar: nil

  • Eindhoven (EHEH)

    Taf: TAF EHEH 251102Z 2512/2618 17010KT 9999 FEW040 BKN100 TEMPO 2512/2513 18017G27KT TEMPO 2513/2522 19017G27KT FEW025 SCT040CB BKN045 PROB30 TEMPO 2514/2522 20020G30KT 3500 SHRA TSRA FEW012 BKN030CB TEMPO 2610/2612 23010G20KT PROB40 TEMPO 2612/2618 23015G25KT 4000 SHRA FEW020 SCT040CB BKN050=

    Metar: nil

  • Niederrhein (EDLV)

    Taf: TAF EDLV 251100Z 2512/2612 16012KT CAVOK BECMG 2515/2518 21003KT TEMPO 2519/2602 4500 RA BKN012 BECMG 2604/2607 22008KT=

    Metar: nil

  • Dortmund/Wickede (EDLW)

    Taf: TAF EDLW 251100Z 2512/2612 18013KT CAVOK BECMG 2514/2517 23006KT PROB30 TEMPO 2519/2524 27015G25KT SHRA BKN020TCU=

    Metar: nil

  • Stuttgart/Echterdingen (EDDS)

    Taf: TAF EDDS 251100Z 2512/2612 12008KT CAVOK BECMG 2515/2519 24008KT TEMPO 2515/2519 26015G30KT PROB30 TEMPO 2515/2518 27020G40KT TSRAGR SCT050CB=

    Metar: METAR EDDS 251320Z 15011KT 110V170 CAVOK 24/01 Q1007 NOSIG=

  • Basel-Mühlhausen (LFSB)

    Taf: TAF LFSB 251100Z 2512/2612 09005KT CAVOK BECMG 2514/2516 27010G20KT PROB40 TEMPO 2513/2516 SHRA SCT050CB PROB30 TEMPO 2513/2516 3000 TSRA TEMPO 2516/2518 29015G30KT TEMPO 2521/2601 RA SCT030TCU BECMG 2601/2603 VRB03KT=

    Metar: METAR LFSB 251330Z 36004KT 320V050 CAVOK 23/11 Q1005 NOSIG=

  • Lille (LFQQ)

    Taf: TAF LFQQ 251100Z 2512/2618 16012KT 9999 SCT020 BKN047 PROB30 TEMPO 2517/2520 VRB17G27KT 4000 SHRA BKN040CB BECMG 2607/2609 22010KT=

    Metar: nil

  • Paris/Charles de Gaulle (LFPG)

    Taf: TAF LFPG 251100Z 2512/2618 19012KT 9999 FEW012 SCT020 TX16/2612Z TN07/2604Z PROB40 TEMPO 2512/2518 21015G25KT 4000 -SHRA SCT015TCU PROB40 TEMPO 2514/2518 VRB20G30KT 2500 TSRA SCT015CB BKN020 PROB40 2602/2607 3000 BR BKN006 PROB30 TEMPO 2603/2606 BKN003 BECMG 2609/2610 FEW020TCU TEMPO 2612/2617 4000 -SHRA PROB40 TEMPO 2615/2617 VRB15G25KT 2500 TSRA SCT012CB=

    Metar: nil

  • Paderborn/Lippstadt (EDLP)

    Taf: TAF EDLP 251100Z 2512/2612 15014KT CAVOK BECMG 2514/2517 12007KT BECMG 2518/2521 26007KT PROB30 TEMPO 2520/2524 27015G25KT SHRA BKN020TCU PROB30 TEMPO 2600/2606 4000 -RA BKN012=

    Metar: nil

  • Paris/Le Bourget (LFPB)

    Taf: TAF LFPB 251100Z 2512/2612 19012KT 9999 FEW012 SCT020 PROB40 TEMPO 2512/2518 21015G25KT 4000 -SHRA SCT015TCU PROB40 TEMPO 2514/2518 VRB20G30KT 2500 TSRA SCT015CB BKN020 PROB40 2603/2606 3000 BR BKN008 PROB30 TEMPO 2603/2605 BKN003 BECMG 2609/2610 FEW020TCU=

    Metar: METAR LFPB 251330Z AUTO 18016KT 9999 BKN026 BKN031 BKN039 13/07 Q1005 TEMPO VRB20G30KT 2500 TSRA SCT015CB BKN020=

  • Rotterdam (EHRD)

    Taf: TAF EHRD 251117Z 2512/2618 16016KT CAVOK PROB40 TEMPO 2513/2518 6000 RA SHRA SCT025CB BKN040 BECMG 2516/2519 18006KT BECMG 2604/2607 21010KT BECMG 2609/2612 24012KT PROB40 TEMPO 2610/2618 24015G25KT 6000 SHRA SCT020CB BECMG 2615/2618 22008KT=

    Metar: nil

  • Zürich/Kloten (LSZH)

    Taf: TAF LSZH 251125Z 2512/2618 14010KT CAVOK TX23/2515Z TN07/2605Z TX12/2615Z TEMPO 2512/2518 16016G32KT BECMG 2518/2520 VRB03KT BECMG 2521/2523 25006KT 9999 BKN040 PROB40 TEMPO 2523/2603 30012G25KT TEMPO 2600/2612 4500 RA TEMPO 2612/2618 4500 SHRA FEW030TCU=

    Metar: METAR LSZH 251320Z 17013KT CAVOK 22/02 Q1007 NOSIG=

  • Oostende/Intl (EBOS)

    Taf: TAF EBOS 251100Z 2512/2618 18015KT 9999 FEW040TCU SCT045 PROB40 TEMPO 2514/2518 16017G30KT PROB30 TEMPO 2513/2523 4500 SHRA BKN014 FEW040CB=

    Metar: nil

  • Paris/Orly (LFPO)

    Taf: TAF LFPO 251100Z 2512/2618 18010KT 9999 BKN016 TEMPO 2515/2518 18015G25KT 4000 SHRA BKN025CB PROB40 TEMPO 2515/2518 TSRA PROB40 TEMPO 2604/2606 3500 BR TEMPO 2612/2618 SHRA BKN030TCU=

    Metar: nil

  • Beauvais (LFOB)

    Taf: TAF LFOB 251100Z 2512/2612 18008KT 9999 SCT020 BKN047 TEMPO 2514/2520 4000 SHRA BKN040CB PROB40 TEMPO 2514/2518 24020G35KT 2000 TSRA=

    Metar: nil

  • Münster/Intl (EDDG)

    Taf: TAF EDDG 251100Z 2512/2612 16012KT CAVOK PROB30 TEMPO 2512/2514 17015G25KT BECMG 2515/2518 23004KT TEMPO 2519/2523 29005KT PROB30 TEMPO 2521/2524 27015G25KT SHRA BKN020TCU BECMG 2606/2609 24009KT=

    Metar: METAR EDDG 251320Z 16013KT 130V190 CAVOK 21/06 Q1007 NOSIG=

  • Illesheim (ETIK)

    Taf: TAF AMD ETIK 251311Z 2513/2612 14010G15KT 9999 FEW100 QNH2975INS BECMG 2517/2518 15009KT 9999 FEW100 QNH2973INS BECMG 2522/2523 VRB06KT 9999 SKC QNH2972INS BECMG 2603/2604 28009KT 9999 BKN020 QNH2979INS BECMG 2605/2606 28010G20KT 9999 BKN010 620606 QNH2990INS BECMG 2610/2611 28015G30KT 9000 -RA BKN010 620409 QNH2988INS TX26/2514Z TN04/2603Z=

    Metar: nil

  • Duebendorf (LSMD)

    Taf: TAF LSMD 250925Z 2510/2616 VRB03KT CAVOK BECMG 2510/2512 17015KT PROB40 TEMPO 2511/2520 17025G35KT BECMG 2518/2521 VRB03KT 9999 BKN100 TEMPO 2600/2616 RA=

    Metar: nil

  • Villacoublay (LFPV)

    Taf: TAF LFPV 250800Z 2509/2609 19008KT 9999 SCT030 BKN050 TEMPO 2509/2511 4000 -RA BKN014 TEMPO 2511/2517 20015G25KT 4000 -SHRA BKN040CB PROB30 TEMPO 2514/2516 2000 TSRA PROB40 2602/2607 3000 BR BKN003=

    Metar: nil

  • Payerne (LSMP)

    Taf: TAF LSMP 250925Z 2510/2616 VRB03KT CAVOK BECMG 2516/2518 23015KT 9999 FEW040 BKN070 TEMPO 2522/2604 RA BKN040 BECMG 2604/2606 VRB03KT TEMPO 2610/2616 SHRA=

    Metar: nil

  • Amsterdam/Schipol (EHAM)

    Taf: TAF EHAM 251117Z 2512/2618 16017KT CAVOK PROB40 TEMPO 2513/2519 6000 RA SHRA SCT025CB BKN040 BECMG 2516/2519 18007KT BECMG 2604/2607 21011KT BECMG 2609/2612 24015KT PROB40 TEMPO 2610/2618 24015G25KT 6000 SHRA SCT020CB BECMG 2615/2618 22010KT=

    Metar: METAR EHAM 251325Z 16011KT 9999 -RA FEW035 17/10 Q1004 NOSIG=

  • Emmen (LSME)

    Taf: TAF LSME 250925Z 2510/2616 VRB03KT CAVOK BECMG 2510/2512 15015KT PROB40 TEMPO 2511/2520 15025G35KT BECMG 2518/2521 VRB03KT 9999 BKN100 TEMPO 2600/2616 RA=

    Metar: nil

  • Friedrichshafen (EDNY)

    Taf: TAF EDNY 251100Z 2512/2612 17012KT CAVOK PROB30 TEMPO 2512/2515 17015G25KT BECMG 2517/2519 VRB03KT BECMG 2522/2524 26008KT BECMG 2600/2602 26013KT PROB30 TEMPO 2600/2605 27015G25KT BECMG 2605/2607 25008KT=

    Metar: nil

  • Alpnach (LSMA)

    Taf: TAF LSMA 250925Z 2510/2616 VRB03KT CAVOK BECMG 2510/2512 20015KT PROB40 TEMPO 2511/2517 20025G35KT BECMG 2517/2520 VRB03KT PROB30 TEMPO 2517/2522 27015G30KT BECMG 2520/2524 9999 BKN080 TEMPO 2600/2616 RA=

    Metar: nil

  • Meiringen (LSMM)

    Taf: TAF LSMM 250925Z 2510/2616 11030G45KT 9999 SCT080 BKN200 PROB30 TEMPO 2510/2518 CAVOK TEMPO 2512/2518 10040G55KT BECMG 2522/2602 30005KT PROB40 TEMPO 2522/2604 30015G25KT TEMPO 2522/2616 RA=

    Metar: nil

  • Nürnberg (EDDN)

    Taf: TAF EDDN 251100Z 2512/2612 13013KT CAVOK PROB30 TEMPO 2512/2515 14015G25KT BECMG 2515/2517 13006KT BECMG 2522/2524 28004KT BECMG 2605/2607 29012KT=

    Metar: METAR EDDN 251320Z 14013KT CAVOK 25/03 Q1009 TEMPO 13015G25KT=

  • Rouen (LFOP)

    Taf: TAF LFOP 251100Z 2512/2612 18008KT 9999 SCT020 BKN047 TEMPO 2512/2519 4000 SHRA BKN040CB PROB40 TEMPO 2512/2517 24020G35KT 2000 TSRA=

    Metar: nil

  • Evreux (LFOE)

    Taf: TAF AMD LFOE 250832Z 2509/2609 20010KT CAVOK TEMPO 2509/2510 BKN012 TEMPO 2510/2519 19015G25KT 4000 SHRA BKN020CB PROB40 TEMPO 2512/2517 22020G40KT 2000 TSRAGS BKN020CB BECMG 2600/2603 BKN005 TEMPO 2604/2608 2000 BR BKN003=

    Metar: nil

  • Erfurt/Bindersleben (EDDE)

    Taf: TAF EDDE 251100Z 2512/2612 10010KT CAVOK PROB30 TEMPO 2512/2517 10015G25KT BECMG 2520/2522 24007KT BECMG 2606/2608 27012KT PROB30 TEMPO 2609/2612 27015G25KT SHRA BKN030CB=

    Metar: nil